Time;durP1;ratioP1;P1;durP2;ratioP2;P2;SDS_P1;SDS_P2;PMS_P1;PMS_P2;Temp;Humidity;BMP_temperature;BMP_pressure;BME280_temperature;BME280_humidity;BME280_pressure;Samples;Min_cycle;Max_cycle;Signal;HPM_P1;HPM_P2
2021/12/29 00:01:44;;;;;;;271.25;114.30;;;;;;;7.55;69.43;94322.13;4916409;29;20025;-78
2021/12/29 00:04:10;;;;;;;247.98;105.85;;;;;;;7.44;70.25;94326.28;4915609;29;20052;-78
2021/12/29 00:06:41;;;;;;;262.13;109.43;;;;;;;7.51;70.13;94327.75;4916179;29;20040;-78
2021/12/29 00:09:06;;;;;;;272.77;116.35;;;;;;;7.55;70.30;94330.69;4922865;23;20050;-78
2021/12/29 00:11:37;;;;;;;272.00;114.95;;;;;;;7.51;70.52;94329.56;4901548;29;20044;-78
2021/12/29 00:14:02;;;;;;;201.73;85.57;;;;;;;7.56;70.27;94323.69;4908772;29;20044;-78
2021/12/29 00:16:29;;;;;;;204.05;82.65;;;;;;;7.55;71.29;94316.94;4887371;29;20036;-78
2021/12/29 00:18:54;;;;;;;210.15;85.80;;;;;;;7.55;71.23;94307.38;4888977;29;20041;-78
2021/12/29 00:21:19;;;;;;;197.73;77.30;;;;;;;7.55;71.35;94307.38;4908099;29;20044;-78
2021/12/29 00:23:48;;;;;;;152.88;65.13;;;;;;;7.49;71.86;94306.50;4894623;24;20059;-78
2021/12/29 00:26:14;;;;;;;146.13;62.38;;;;;;;7.52;72.72;94308.63;4891002;29;20056;-78
2021/12/29 00:28:40;;;;;;;155.93;62.72;;;;;;;7.57;72.42;94313.13;4905563;29;20044;-78
2021/12/29 00:31:05;;;;;;;156.95;63.25;;;;;;;7.56;72.74;94319.31;4907127;29;20574;-78
2021/12/29 00:33:30;;;;;;;198.20;81.95;;;;;;;7.48;71.97;94317.03;4914025;29;20033;-78
2021/12/29 00:36:09;;;;;;;264.10;100.20;;;;;;;7.37;72.04;94313.47;4913875;29;20087;-78
2021/12/29 00:38:34;;;;;;;255.10;97.13;;;;;;;7.34;72.14;94310.53;4914286;29;20096;-78
2021/12/29 00:40:59;;;;;;;258.77;94.88;;;;;;;7.29;71.85;94318.16;4913264;29;20036;-79
2021/12/29 00:43:25;;;;;;;202.02;84.75;;;;;;;7.25;71.94;94309.28;4891640;29;20040;-78
2021/12/29 00:45:53;;;;;;;167.43;67.13;;;;;;;7.26;71.80;94303.09;4892671;29;20036;-79
2021/12/29 00:48:20;;;;;;;155.18;64.35;;;;;;;7.29;71.68;94312.97;4911291;24;20047;-78
2021/12/29 00:50:45;;;;;;;158.98;68.25;;;;;;;7.25;71.74;94315.22;4940761;29;20497;-78
2021/12/29 00:53:11;;;;;;;152.82;67.45;;;;;;;7.29;71.69;94321.53;4913142;23;20051;-78
2021/12/29 00:55:39;;;;;;;142.38;63.78;;;;;;;7.34;71.13;94315.72;4910442;29;20042;-78
2021/12/29 00:58:07;;;;;;;145.50;65.32;;;;;;;7.27;70.98;94309.84;4910088;29;20104;-78
2021/12/29 01:00:36;;;;;;;144.15;66.70;;;;;;;7.23;71.51;94299.16;4893472;29;20028;-78
2021/12/29 01:03:02;;;;;;;123.50;60.75;;;;;;;7.25;71.61;94296.34;4893494;29;20107;-78
2021/12/29 01:05:28;;;;;;;135.15;61.22;;;;;;;7.25;71.89;94301.50;4909312;29;20465;-79
2021/12/29 01:07:53;;;;;;;138.30;64.25;;;;;;;7.29;71.84;94302.63;4890836;29;20050;-78
2021/12/29 01:10:19;;;;;;;135.65;63.08;;;;;;;7.36;71.01;94308.50;4874847;29;20092;-78
2021/12/29 01:12:52;;;;;;;152.55;70.10;;;;;;;7.40;70.95;94314.81;4907109;29;20413;-78
2021/12/29 01:15:24;;;;;;;148.48;68.22;;;;;;;7.27;70.71;94299.50;4907660;29;20056;-78
2021/12/29 01:17:50;;;;;;;159.23;70.18;;;;;;;7.26;69.96;94292.75;4915750;29;20047;-78
2021/12/29 01:20:16;;;;;;;142.85;66.57;;;;;;;7.26;70.07;94290.16;4919735;29;20067;-78
2021/12/29 01:22:43;;;;;;;143.20;65.28;;;;;;;7.26;71.30;94290.94;4876240;29;20461;-78
2021/12/29 01:25:09;;;;;;;133.77;60.97;;;;;;;7.32;70.35;94291.84;4887810;29;20381;-78
2021/12/29 01:27:34;;;;;;;110.30;52.72;;;;;;;7.33;70.65;94283.09;4908449;29;20043;-78
2021/12/29 01:30:00;;;;;;;140.38;64.22;;;;;;;7.33;70.53;94283.09;4910579;29;20047;-78
2021/12/29 01:32:26;;;;;;;117.22;53.95;;;;;;;7.36;70.27;94282.66;4907483;29;20116;-78
2021/12/29 01:34:54;;;;;;;107.53;55.47;;;;;;;7.34;69.64;94276.91;4890116;29;20048;-78
2021/12/29 01:37:19;;;;;;;109.70;53.95;;;;;;;7.21;70.28;94280.50;4875072;29;20044;-78
2021/12/29 01:39:45;;;;;;;137.15;61.72;;;;;;;7.21;70.07;94268.34;4906987;29;20124;-79
2021/12/29 01:42:13;;;;;;;131.00;65.50;;;;;;;7.16;69.69;94273.41;4890379;29;20025;-78
2021/12/29 01:44:41;;;;;;;132.73;65.35;;;;;;;7.23;69.57;94271.50;4874044;29;20044;-78
2021/12/29 01:47:07;;;;;;;122.00;62.30;;;;;;;7.25;69.19;94266.09;4889599;29;20112;-78
2021/12/29 01:49:32;;;;;;;127.75;64.20;;;;;;;7.25;69.24;94260.94;4889595;29;20047;-79
2021/12/29 01:52:11;;;;;;;127.07;63.75;;;;;;;7.15;69.48;94261.47;4890120;29;20033;-78
2021/12/29 01:54:37;;;;;;;100.78;49.85;;;;;;;7.23;70.89;94258.56;4890939;29;20104;-78
2021/12/29 01:57:07;;;;;;;89.32;47.10;;;;;;;7.27;70.83;94250.34;4889188;29;20560;-78
2021/12/29 01:59:32;;;;;;;94.20;45.60;;;;;;;7.28;68.88;94246.75;4890700;29;20048;-78
2021/12/29 02:01:58;;;;;;;83.72;44.42;;;;;;;7.26;69.14;94241.03;4891479;29;20045;-78
2021/12/29 02:04:23;;;;;;;92.32;48.25;;;;;;;7.16;69.19;94242.38;4889396;29;20044;-78
2021/12/29 02:06:49;;;;;;;82.00;47.22;;;;;;;7.20;69.36;94232.38;4873844;29;20486;-78
2021/12/29 02:09:17;;;;;;;86.85;44.47;;;;;;;7.19;69.78;94231.59;4904624;29;20045;-78
2021/12/29 02:11:44;;;;;;;79.47;44.08;;;;;;;7.19;69.80;94220.47;4906870;29;20044;-78
2021/12/29 02:14:09;;;;;;;83.00;44.78;;;;;;;7.19;70.21;94208.31;4879169;29;20060;-78
2021/12/29 02:16:35;;;;;;;103.32;49.70;;;;;;;7.20;70.29;94209.09;4907669;29;20066;-78
2021/12/29 02:19:07;;;;;;;101.80;50.47;;;;;;;7.16;70.72;94193.25;4889322;29;20054;-78
2021/12/29 02:21:33;;;;;;;100.55;49.80;;;;;;;7.22;71.03;94200.09;4883153;29;20155;-78
2021/12/29 02:26:30;;;;;;;93.75;50.65;;;;;;;7.32;70.86;94206.50;4889547;29;20108;-78
2021/12/29 02:28:56;;;;;;;138.73;60.58;;;;;;;7.30;70.10;94205.94;4873891;29;20056;-78
2021/12/29 02:31:22;;;;;;;163.43;68.30;;;;;;;7.24;70.30;94202.47;4874818;29;20124;-78
2021/12/29 02:33:48;;;;;;;148.50;61.67;;;;;;;7.27;70.21;94206.41;4892069;29;20056;-78
2021/12/29 02:36:13;;;;;;;163.63;68.85;;;;;;;7.29;69.97;94206.94;4910305;29;20075;-78
2021/12/29 02:38:45;;;;;;;130.25;62.70;;;;;;;7.31;69.95;94202.34;4893979;29;20050;-78
2021/12/29 02:41:10;;;;;;;76.57;39.17;;;;;;;7.27;71.13;94201.22;4910425;29;20048;-78
2021/12/29 02:43:37;;;;;;;73.10;37.30;;;;;;;7.17;71.13;94207.75;4863537;29;20056;-78
2021/12/29 02:46:06;;;;;;;59.50;31.58;;;;;;;7.08;71.65;94203.94;4894264;29;20112;-79
2021/12/29 02:48:34;;;;;;;54.05;30.88;;;;;;;7.03;71.97;94203.03;4895474;29;20091;-78
2021/12/29 02:51:00;;;;;;;52.38;31.08;;;;;;;7.05;71.83;94199.22;4909648;29;20289;-79
2021/12/29 02:53:26;;;;;;;55.40;32.28;;;;;;;7.05;71.85;94188.88;4892461;29;20115;-78
2021/12/29 02:55:53;;;;;;;56.92;32.05;;;;;;;7.12;71.67;94194.69;4892824;29;20563;-78
2021/12/29 02:58:19;;;;;;;61.53;32.85;;;;;;;7.10;71.46;94191.56;4908836;29;20508;-78
2021/12/29 03:00:44;;;;;;;55.85;31.85;;;;;;;7.11;71.11;94194.94;4909410;29;20044;-78
2021/12/29 03:03:23;;;;;;;61.10;33.67;;;;;;;7.21;71.11;94195.94;4893141;29;20393;-78
2021/12/29 03:05:48;;;;;;;68.10;34.72;;;;;;;7.22;71.00;94194.16;4862858;29;20477;-78
2021/12/29 03:08:17;;;;;;;60.63;33.35;;;;;;;7.27;70.69;94196.06;4861864;29;20051;-78
2021/12/29 03:10:43;;;;;;;51.50;31.67;;;;;;;7.33;70.58;94192.59;4909295;29;20024;-78
2021/12/29 03:13:08;;;;;;;46.78;29.63;;;;;;;7.33;70.39;94192.59;4861498;29;20055;-78
2021/12/29 03:15:35;;;;;;;52.50;29.95;;;;;;;7.34;70.63;94194.94;4893486;29;20464;-78
2021/12/29 03:18:00;;;;;;;55.50;31.25;;;;;;;7.35;70.52;94198.31;4910080;29;20036;-78
2021/12/29 03:20:26;;;;;;;69.15;36.13;;;;;;;7.37;70.27;94191.09;4893478;29;20071;-78
2021/12/29 03:22:53;;;;;;;54.83;31.17;;;;;;;7.36;70.52;94174.03;4878337;29;20415;-78
2021/12/29 03:25:18;;;;;;;48.00;30.23;;;;;;;7.37;70.91;94176.38;4878857;29;20476;-78
2021/12/29 03:27:46;;;;;;;51.55;31.17;;;;;;;7.37;70.83;94170.41;4909588;29;20043;-78
2021/12/29 03:30:11;;;;;;;53.10;30.75;;;;;;;7.40;70.82;94164.78;4909733;29;20037;-78
2021/12/29 03:32:41;;;;;;;55.00;32.45;;;;;;;7.35;70.42;94172.44;4909892;29;20036;-78
2021/12/29 03:35:07;;;;;;;63.28;34.67;;;;;;;7.39;70.94;94169.16;4861316;29;20123;-78
2021/12/29 03:37:33;;;;;;;62.67;38.50;;;;;;;7.48;70.49;94167.00;4919501;23;20043;-78
2021/12/29 03:39:58;;;;;;;64.65;37.42;;;;;;;7.54;69.71;94166.09;4938312;29;20031;-78
2021/12/29 03:42:24;;;;;;;75.25;41.30;;;;;;;7.47;70.22;94165.44;4913117;29;20036;-78
2021/12/29 03:44:49;;;;;;;64.18;39.42;;;;;;;7.52;70.59;94170.72;4919413;29;20043;-78
2021/12/29 03:47:15;;;;;;;68.32;35.88;;;;;;;7.56;70.28;94158.91;4925869;29;20119;-78
2021/12/29 03:49:43;;;;;;;67.43;38.00;;;;;;;7.64;70.01;94161.13;4937110;29;20059;-78
2021/12/29 03:52:11;;;;;;;62.13;34.65;;;;;;;7.67;69.49;94158.09;4936788;29;20679;-78
2021/12/29 03:54:37;;;;;;;64.03;36.88;;;;;;;7.65;69.85;94157.53;4935305;29;20064;-78
2021/12/29 03:57:04;;;;;;;61.83;36.35;;;;;;;7.62;70.00;94152.81;4920828;29;20083;-78
2021/12/29 03:59:30;;;;;;;68.18;38.00;;;;;;;7.65;69.77;94157.53;4938443;29;20041;-79
2021/12/29 04:01:55;;;;;;;62.67;37.33;;;;;;;7.68;69.78;94141.56;4921434;29;20059;-79
2021/12/29 04:04:21;;;;;;;66.85;39.45;;;;;;;7.60;69.82;94149.66;4937671;29;20646;-78
2021/12/29 04:06:46;;;;;;;69.60;40.28;;;;;;;7.65;69.84;94142.03;4904333;29;20503;-78
2021/12/29 04:09:14;;;;;;;70.22;37.88;;;;;;;7.69;69.47;94145.72;4919052;29;20144;-77
2021/12/29 04:11:39;;;;;;;75.88;40.92;;;;;;;7.68;69.28;94149.31;4936092;29;20040;-78
2021/12/29 04:14:08;;;;;;;73.35;39.63;;;;;;;7.69;69.17;94153.47;4934637;29;20036;-78
2021/12/29 04:16:37;;;;;;;67.85;38.83;;;;;;;7.66;69.01;94143.59;4936718;29;20039;-78
2021/12/29 04:19:07;;;;;;;69.90;37.78;;;;;;;7.73;69.71;94148.63;4912792;29;20095;-78
2021/12/29 04:21:36;;;;;;;92.45;45.55;;;;;;;7.72;69.43;94144.47;4898561;29;20031;-78
2021/12/29 04:24:01;;;;;;;67.25;38.72;;;;;;;7.68;68.92;94141.56;4936798;29;20114;-78
2021/12/29 04:26:27;;;;;;;75.70;39.78;;;;;;;7.68;69.81;94144.16;4936863;29;20063;-78
2021/12/29 04:28:55;;;;;;;76.05;44.70;;;;;;;7.62;69.66;94150.22;4920626;29;20032;-78
2021/12/29 04:31:20;;;;;;;49.20;30.63;;;;;;;7.64;69.99;94148.19;4912416;29;20035;-78
2021/12/29 04:33:49;;;;;;;57.90;31.63;;;;;;;7.76;69.62;94148.16;4920059;29;20503;-78
2021/12/29 04:36:15;;;;;;;52.80;30.63;;;;;;;7.78;70.06;94141.72;4936307;29;20031;-78
2021/12/29 04:38:43;;;;;;;49.58;29.33;;;;;;;7.76;69.69;94153.34;4936200;29;20122;-78
2021/12/29 04:41:09;;;;;;;53.90;31.05;;;;;;;7.75;69.50;94149.97;4936123;29;20558;-78
2021/12/29 04:43:34;;;;;;;51.47;30.00;;;;;;;7.76;69.78;94154.13;4935077;29;20040;-78
2021/12/29 04:45:59;;;;;;;47.78;28.50;;;;;;;7.74;69.63;94152.78;4934893;29;20507;-78
2021/12/29 04:48:25;;;;;;;44.75;26.35;;;;;;;7.70;70.19;94160.22;4935399;29;20078;-78
2021/12/29 04:50:53;;;;;;;46.33;28.75;;;;;;;7.74;70.12;94161.31;4919476;29;20424;-78
2021/12/29 04:53:20;;;;;;;47.58;30.35;;;;;;;7.75;69.87;94162.13;4925523;29;20078;-78
2021/12/29 04:55:49;;;;;;;48.42;28.45;;;;;;;7.75;69.80;94162.91;4919334;29;20035;-78
2021/12/29 04:58:15;;;;;;;44.70;28.50;;;;;;;7.75;70.07;94157.72;4920765;23;20835;31
2021/12/29 05:00:40;;;;;;;51.65;27.83;;;;;;;7.77;70.72;94160.06;4871056;29;20068;-78
2021/12/29 05:03:06;;;;;;;48.42;29.25;;;;;;;7.81;69.56;94158.63;4879030;29;20417;-78
2021/12/29 05:10:44;;;;;;;62.78;36.72;;;;;;;7.98;69.01;94150.91;4899552;29;20081;-78
2021/12/29 05:13:09;;;;;;;62.95;36.75;;;;;;;8.03;69.16;94169.13;4884407;29;20045;-78
2021/12/29 05:15:34;;;;;;;61.95;39.30;;;;;;;8.02;69.41;94167.53;4880101;29;20052;-78
2021/12/29 05:18:01;;;;;;;66.72;41.08;;;;;;;8.01;69.47;94165.97;4858612;29;20031;-78
2021/12/29 05:20:27;;;;;;;72.97;45.55;;;;;;;8.07;69.46;94163.22;4889990;29;20123;-78
2021/12/29 05:22:53;;;;;;;85.82;46.92;;;;;;;8.14;68.79;94163.13;4873369;29;20037;-78
2021/12/29 05:25:36;;;;;;;75.18;44.30;;;;;;;8.20;68.82;94163.97;4873281;29;20525;-78
2021/12/29 05:28:02;;;;;;;68.32;38.92;;;;;;;8.19;68.53;94170.97;4889478;29;20048;-78
2021/12/29 05:30:27;;;;;;;68.82;38.88;;;;;;;8.15;69.33;94175.03;4874067;29;20041;-78
2021/12/29 05:32:53;;;;;;;68.80;39.70;;;;;;;8.16;69.19;94163.66;4896071;29;20037;-78
2021/12/29 05:35:18;;;;;;;65.25;38.42;;;;;;;8.25;68.15;94164.84;4873873;29;20052;-78
2021/12/29 05:37:44;;;;;;;63.17;38.05;;;;;;;8.29;68.62;94163.34;4848083;29;20453;-79
2021/12/29 05:40:10;;;;;;;70.05;39.65;;;;;;;8.25;68.50;94166.66;4889086;29;20044;-78
2021/12/29 05:42:38;;;;;;;67.60;40.15;;;;;;;8.27;68.39;94173.16;4891779;29;20512;-79
2021/12/29 05:45:05;;;;;;;69.20;41.13;;;;;;;8.29;68.88;94167.75;4874757;29;20056;-78
2021/12/29 05:47:31;;;;;;;67.15;40.33;;;;;;;8.35;68.34;94170.25;4891753;29;20033;-78
2021/12/29 05:49:56;;;;;;;76.07;39.88;;;;;;;8.37;68.78;94165.59;4890590;29;20497;-78
2021/12/29 05:52:22;;;;;;;63.78;38.65;;;;;;;8.33;68.29;94167.06;4872880;29;20045;-78
2021/12/29 05:54:47;;;;;;;65.95;38.80;;;;;;;8.30;68.54;94170.13;4872472;29;20037;-78
2021/12/29 05:57:13;;;;;;;69.78;41.65;;;;;;;8.33;68.40;94167.06;4872906;29;20412;-79
2021/12/29 05:59:38;;;;;;;71.07;42.08;;;;;;;8.41;67.98;94171.88;4888749;29;20040;-78
2021/12/29 06:02:04;;;;;;;69.07;42.80;;;;;;;8.39;68.33;94168.75;4905307;29;20041;-78
2021/12/29 06:04:30;;;;;;;63.55;37.15;;;;;;;8.42;68.88;94168.28;4894423;29;20025;-78
2021/12/29 06:06:55;;;;;;;63.88;38.90;;;;;;;8.40;68.66;94169.53;4908961;29;20076;-79
2021/12/29 06:09:21;;;;;;;64.28;37.08;;;;;;;8.45;68.36;94172.19;4903542;29;20041;-78
2021/12/29 06:11:46;;;;;;;63.83;38.75;;;;;;;8.50;68.68;94171.53;4900007;29;20032;-78
2021/12/29 06:14:12;;;;;;;78.60;44.90;;;;;;;8.53;67.96;94173.63;4881937;29;20053;-79
2021/12/29 06:16:37;;;;;;;86.78;48.75;;;;;;;8.58;67.93;94168.53;4877624;29;20064;-78
2021/12/29 06:19:03;;;;;;;114.18;59.90;;;;;;;8.57;68.29;94169.56;4889617;29;20418;-78
2021/12/29 06:21:28;;;;;;;105.07;56.65;;;;;;;8.58;67.83;94176.31;4856119;29;20494;-78
2021/12/29 06:23:54;;;;;;;101.30;54.67;;;;;;;8.57;68.11;94179.91;4872967;29;20565;-78
2021/12/29 06:26:19;;;;;;;96.63;50.38;;;;;;;8.62;68.14;94187.75;4889492;29;20041;-78
2021/12/29 06:28:46;;;;;;;134.02;71.15;;;;;;;8.64;68.03;94191.72;4874749;29;20052;-78
2021/12/29 06:31:12;;;;;;;332.38;153.98;;;;;;;8.64;67.62;94196.13;4873291;29;20041;-79
2021/12/29 06:33:37;;;;;;;386.85;190.93;;;;;;;8.63;67.93;94195.34;4873343;29;20041;-78
2021/12/29 06:36:03;;;;;;;368.38;178.27;;;;;;;8.72;67.45;94195.72;4873938;29;20036;-78
2021/12/29 06:38:28;;;;;;;304.80;154.38;;;;;;;8.71;67.47;94199.34;4872834;29;20039;-78
2021/12/29 06:40:54;;;;;;;294.30;152.82;;;;;;;8.71;67.77;94207.09;4874166;29;20025;-78
2021/12/29 06:43:21;;;;;;;280.90;148.90;;;;;;;8.58;68.19;94203.00;4872591;29;20064;-78
2021/12/29 06:45:47;;;;;;;274.80;159.57;;;;;;;8.64;68.36;94203.88;4859625;29;20033;-79
2021/12/29 06:48:12;;;;;;;272.05;150.13;;;;;;;8.61;68.49;94199.16;4860154;29;20048;-79
2021/12/29 06:50:42;;;;;;;233.77;132.43;;;;;;;8.71;68.32;94210.47;4857781;29;20096;-79
2021/12/29 06:53:10;;;;;;;172.88;105.50;;;;;;;8.69;68.19;94204.75;4889881;29;20047;-79
2021/12/29 06:55:36;;;;;;;127.45;67.82;;;;;;;8.75;68.20;94203.00;4888110;29;20044;-79
2021/12/29 06:58:13;;;;;;;103.53;57.90;;;;;;;8.81;68.18;94217.66;4871848;29;20044;-79
2021/12/29 07:00:39;;;;;;;90.60;49.60;;;;;;;8.77;68.10;94211.34;4887679;29;20037;-78
2021/12/29 07:03:05;;;;;;;84.75;47.08;;;;;;;8.76;68.17;94209.00;4887140;29;20056;-78
2021/12/29 07:05:30;;;;;;;78.35;42.58;;;;;;;8.74;68.84;94206.63;4886863;29;20048;-78
2021/12/29 07:07:56;;;;;;;63.97;33.92;;;;;;;8.70;68.53;94215.91;4855987;29;20037;-78
2021/12/29 07:10:21;;;;;;;69.15;36.45;;;;;;;8.64;68.84;94216.84;4888002;29;20084;-78
2021/12/29 07:12:47;;;;;;;65.25;35.53;;;;;;;8.58;68.75;94217.75;4865070;29;20303;-78
2021/12/29 07:15:13;;;;;;;65.97;35.25;;;;;;;8.60;69.79;94216.50;4871036;29;20067;-78
2021/12/29 07:17:49;;;;;;;58.20;32.28;;;;;;;8.66;68.89;94215.59;4878572;29;20048;-78
2021/12/29 07:20:14;;;;;;;52.90;31.00;;;;;;;8.76;68.94;94214.97;4873154;29;20036;-78
2021/12/29 07:22:40;;;;;;;68.90;36.85;;;;;;;8.75;68.71;94231.53;4874785;29;20040;-79
2021/12/29 07:25:05;;;;;;;77.15;38.78;;;;;;;8.83;67.99;94220.78;4845687;29;20120;-78
2021/12/29 07:27:31;;;;;;;61.15;33.92;;;;;;;8.85;67.95;94226.53;4892021;29;20040;-78
2021/12/29 07:29:56;;;;;;;64.85;35.13;;;;;;;8.87;68.06;94224.47;4860439;29;20040;-78
2021/12/29 07:32:22;;;;;;;58.03;31.50;;;;;;;8.91;67.82;94225.56;4875588;29;20052;-78
2021/12/29 07:34:53;;;;;;;57.38;33.17;;;;;;;8.91;68.26;94222.19;4859384;29;20032;-78
2021/12/29 07:37:19;;;;;;;59.60;33.37;;;;;;;8.91;68.51;94217.00;4891466;29;20060;-78
2021/12/29 07:42:14;;;;;;;55.03;33.45;;;;;;;8.99;67.83;94227.78;4945039;23;20079;-78
2021/12/29 07:44:41;;;;;;;67.88;35.72;;;;;;;9.00;67.64;94226.75;4948818;29;20115;-78
2021/12/29 07:47:07;;;;;;;69.60;37.42;;;;;;;9.03;67.97;94223.69;4949029;29;20059;-79
2021/12/29 07:49:32;;;;;;;113.25;59.35;;;;;;;8.94;68.11;94224.31;4930485;29;20039;-78
2021/12/29 07:51:58;;;;;;;106.40;62.30;;;;;;;8.92;68.56;94223.75;4949130;29;20053;-79
2021/12/29 07:54:23;;;;;;;103.70;58.75;;;;;;;8.92;68.75;94221.97;4931099;29;20038;-78
2021/12/29 07:56:49;;;;;;;81.13;46.47;;;;;;;8.89;68.34;94224.25;4931590;29;20038;-78
2021/12/29 07:59:14;;;;;;;87.90;48.65;;;;;;;8.91;69.00;94225.56;4930713;29;20043;-78
2021/12/29 08:01:43;;;;;;;88.00;51.40;;;;;;;8.94;68.83;94225.09;4931255;29;20419;-79
2021/12/29 08:04:19;;;;;;;105.95;55.58;;;;;;;8.94;69.50;94226.91;4950006;23;20048;-79
2021/12/29 08:06:45;;;;;;;103.93;53.22;;;;;;;8.93;69.18;94227.94;4942154;29;20513;-79
2021/12/29 08:09:10;;;;;;;97.85;50.65;;;;;;;8.90;68.77;94221.41;4959545;23;20055;-79
2021/12/29 08:11:37;;;;;;;86.57;47.85;;;;;;;8.97;68.85;94227.25;4919258;29;20035;-79
2021/12/29 08:14:03;;;;;;;92.18;52.08;;;;;;;8.95;68.87;94221.50;4907976;29;20405;-78
2021/12/29 08:16:28;;;;;;;82.95;47.97;;;;;;;9.07;69.80;94228.41;4908901;29;20064;-78
2021/12/29 08:18:53;;;;;;;106.25;56.15;;;;;;;9.10;69.83;94225.34;4907400;29;20433;-78
2021/12/29 08:21:19;;;;;;;125.03;63.33;;;;;;;9.10;69.71;94220.94;4907236;29;20040;-78
2021/12/29 08:23:44;;;;;;;142.50;69.72;;;;;;;9.12;69.80;94224.09;4910459;29;20055;-78
2021/12/29 08:26:12;;;;;;;145.75;70.60;;;;;;;9.14;70.14;94219.47;4910232;29;20036;-78
2021/12/29 08:28:40;;;;;;;121.00;60.28;;;;;;;9.20;70.31;94225.50;4892536;29;20615;-78
2021/12/29 08:31:07;;;;;;;121.35;66.70;;;;;;;9.28;69.68;94222.53;4909333;29;20033;-78
2021/12/29 08:33:37;;;;;;;133.80;71.85;;;;;;;9.30;69.24;94220.47;4908915;29;20497;-78
2021/12/29 08:36:04;;;;;;;140.77;72.60;;;;;;;9.28;68.57;94219.91;4908835;29;20032;-79
2021/12/29 08:38:40;;;;;;;135.50;75.57;;;;;;;9.31;69.12;94228.00;4907751;29;20033;-78
2021/12/29 08:41:05;;;;;;;137.98;80.57;;;;;;;9.28;69.53;94222.53;4873323;29;20090;-78
2021/12/29 08:43:33;;;;;;;163.35;99.65;;;;;;;9.28;69.74;94227.72;4871149;29;20044;-78
2021/12/29 08:45:59;;;;;;;147.90;86.78;;;;;;;9.32;69.02;94221.78;4887705;29;20053;-80
2021/12/29 08:48:24;;;;;;;142.48;88.47;;;;;;;9.37;68.95;94221.06;4857773;29;20044;-78
2021/12/29 08:50:50;;;;;;;119.75;71.05;;;;;;;9.34;68.32;94221.56;4846258;29;20124;-78
2021/12/29 08:53:15;;;;;;;123.95;75.50;;;;;;;9.26;69.50;94219.34;4894731;29;20037;-78
2021/12/29 08:55:46;;;;;;;88.65;53.45;;;;;;;9.21;69.71;94220.06;4912430;23;20404;-79
2021/12/29 08:58:13;;;;;;;80.45;45.80;;;;;;;9.29;69.58;94218.91;4927934;29;20035;-80
2021/12/29 09:00:39;;;;;;;93.47;57.80;;;;;;;9.29;70.05;94218.91;4898467;29;20579;-79
2021/12/29 09:03:06;;;;;;;112.13;72.25;;;;;;;9.32;69.75;94213.22;4927887;29;20207;-78
2021/12/29 09:05:32;;;;;;;114.22;68.00;;;;;;;9.35;69.67;94215.34;4933710;29;20028;-81
2021/12/29 09:07:57;;;;;;;119.75;69.53;;;;;;;9.41;69.80;94211.78;4966876;24;20055;-79
2021/12/29 09:10:23;;;;;;;101.15;57.17;;;;;;;9.48;68.87;94209.81;4917728;29;20039;-80
2021/12/29 09:12:51;;;;;;;83.53;51.22;;;;;;;9.56;68.91;94199.00;4915499;29;20543;-82
2021/12/29 09:15:16;;;;;;;72.28;44.08;;;;;;;9.70;68.16;94194.25;4920953;23;20040;-79
2021/12/29 09:17:42;;;;;;;66.65;37.58;;;;;;;9.78;68.74;94186.06;4944141;29;20082;-80
2021/12/29 09:20:14;;;;;;;59.20;37.13;;;;;;;9.86;67.80;94188.22;4951386;29;20662;-79
2021/12/29 09:22:40;;;;;;;66.70;38.20;;;;;;;9.91;67.45;94184.88;4952553;29;20035;-81
2021/12/29 09:25:08;;;;;;;69.57;38.40;;;;;;;9.99;67.19;94189.66;4934247;29;20035;-83
2021/12/29 09:27:33;;;;;;;60.42;38.22;;;;;;;9.99;67.32;94187.06;4918132;29;20039;-80
2021/12/29 09:29:59;;;;;;;68.22;39.13;;;;;;;10.05;67.17;94180.13;4933970;29;20067;-80
2021/12/29 09:32:31;;;;;;;65.32;39.75;;;;;;;10.05;66.38;94169.72;4957131;29;20043;-80
2021/12/29 09:34:59;;;;;;;65.68;38.80;;;;;;;10.15;67.06;94165.44;4904822;29;20035;-80
2021/12/29 09:37:26;;;;;;;67.78;40.10;;;;;;;10.21;67.22;94164.47;4961676;29;20028;-80
2021/12/29 09:39:55;;;;;;;82.95;46.58;;;;;;;10.23;65.95;94162.41;4951580;29;20042;-78
2021/12/29 09:42:20;;;;;;;88.57;52.22;;;;;;;10.26;66.10;94165.56;4956291;28;20046;-81
2021/12/29 09:44:46;;;;;;;101.80;58.60;;;;;;;10.28;65.94;94164.28;4923521;29;20035;-79
2021/12/29 09:47:11;;;;;;;97.75;56.58;;;;;;;10.33;66.00;94168.75;4953568;29;20184;-81
2021/12/29 09:49:39;;;;;;;94.05;57.10;;;;;;;10.36;66.57;94161.25;4959400;29;20039;-82
2021/12/29 09:52:05;;;;;;;100.22;56.35;;;;;;;10.43;66.19;94161.06;4935035;29;20031;-79
2021/12/29 09:54:31;;;;;;;91.05;52.65;;;;;;;10.45;66.30;94153.78;4918412;29;20031;-80
2021/12/29 09:56:57;;;;;;;91.55;51.38;;;;;;;10.43;66.18;94155.84;4948714;29;20024;-83
2021/12/29 09:59:23;;;;;;;94.70;51.45;;;;;;;10.49;66.37;94150.44;4939312;29;20049;-81
2021/12/29 10:01:48;;;;;;;82.85;49.22;;;;;;;10.59;66.27;94146.38;4949036;29;20031;-80
2021/12/29 10:04:14;;;;;;;79.50;47.60;;;;;;;10.62;66.29;94151.88;4951392;29;20644;-83
2021/12/29 10:06:40;;;;;;;81.07;49.20;;;;;;;10.62;65.76;94148.47;4954267;29;20051;-83
2021/12/29 10:09:15;;;;;;;71.53;43.75;;;;;;;10.52;66.83;94139.56;4923204;29;20067;-82
2021/12/29 10:11:41;;;;;;;79.82;43.55;;;;;;;10.45;67.52;94144.19;4954094;29;20046;-83
2021/12/29 10:14:08;;;;;;;78.55;41.92;;;;;;;10.43;67.98;94141.06;4926352;29;20040;-82
2021/12/29 10:16:33;;;;;;;77.72;43.60;;;;;;;10.41;68.13;94134.50;4924234;29;20040;-83
2021/12/29 10:19:13;;;;;;;70.57;41.53;;;;;;;10.39;68.68;94134.75;4922099;29;20047;-83
2021/12/29 10:21:46;;;;;;;71.07;43.42;;;;;;;10.35;68.68;94132.91;4927197;29;20047;-80
2021/12/29 10:24:12;;;;;;;76.78;45.55;;;;;;;10.32;68.64;94136.00;4938549;29;20028;-82
2021/12/29 10:26:45;;;;;;;72.68;42.40;;;;;;;10.30;68.39;94135.47;4927545;29;20584;-81
2021/12/29 10:29:13;;;;;;;77.35;44.95;;;;;;;10.26;69.04;94131.78;4921447;29;20035;-82
2021/12/29 10:31:43;;;;;;;78.03;45.38;;;;;;;10.25;68.94;94130.19;4957104;29;20613;-81
2021/12/29 10:34:17;;;;;;;79.28;44.88;;;;;;;10.21;69.16;94122.13;4961905;29;20918;-82
2021/12/29 10:36:48;;;;;;;77.28;43.40;;;;;;;10.18;68.85;94112.97;4959880;29;20075;-81
2021/12/29 10:39:22;;;;;;;94.40;49.25;;;;;;;10.14;69.17;94117.09;4942737;29;20042;-83
2021/12/29 10:41:50;;;;;;;81.80;49.33;;;;;;;9.98;69.30;94112.00;4919328;29;20059;-80
2021/12/29 10:44:16;;;;;;;99.15;56.63;;;;;;;9.91;69.02;94109.59;4933373;29;20040;-79
2021/12/29 10:46:42;;;;;;;99.65;57.50;;;;;;;9.90;69.62;94110.59;4920784;29;20531;-83
2021/12/29 10:49:08;;;;;;;92.22;57.17;;;;;;;9.95;70.48;94104.72;4951731;29;20039;-80
2021/12/29 10:51:42;;;;;;;102.63;61.25;;;;;;;9.98;70.00;94104.22;4922265;24;20037;-83
2021/12/29 10:54:11;;;;;;;102.45;59.75;;;;;;;10.01;69.89;94109.69;4926937;29;20056;-81
2021/12/29 10:56:38;;;;;;;106.97;60.42;;;;;;;9.98;69.57;94105.00;4881765;29;20036;-81
2021/12/29 10:59:14;;;;;;;117.10;61.75;;;;;;;9.95;69.42;94105.50;4919484;29;20477;-82
2021/12/29 11:01:40;;;;;;;101.93;59.78;;;;;;;9.96;69.99;94104.47;4879345;29;20036;-79
2021/12/29 11:04:07;;;;;;;97.70;58.72;;;;;;;9.87;69.98;94093.72;4940436;24;20139;-81
2021/12/29 11:06:33;;;;;;;102.30;58.22;;;;;;;9.74;70.01;94096.69;4895718;29;20033;-81
2021/12/29 11:09:02;;;;;;;108.78;62.25;;;;;;;9.58;70.59;94092.34;5023936;24;20056;-81
2021/12/29 11:11:36;;;;;;;105.57;60.83;;;;;;;9.54;70.89;94097.25;4900544;24;20044;-80
2021/12/29 11:14:23;;;;;;;106.38;58.70;;;;;;;9.56;72.03;94087.41;4914944;29;20045;-79
2021/12/29 11:17:03;;;;;;;110.90;59.58;;;;;;;9.58;70.91;94093.13;4890184;29;20036;-81
2021/12/29 11:19:29;;;;;;;107.05;60.97;;;;;;;9.61;71.71;94082.28;4906228;29;20043;-79
2021/12/29 11:22:13;;;;;;;115.93;62.97;;;;;;;9.63;72.09;94085.41;4875706;29;20062;-80
2021/12/29 11:24:40;;;;;;;106.88;61.70;;;;;;;9.67;71.31;94077.94;4906627;29;20047;-80
2021/12/29 11:27:10;;;;;;;113.15;61.35;;;;;;;9.77;71.10;94079.84;4914687;29;20061;-80
2021/12/29 11:29:50;;;;;;;111.05;64.05;;;;;;;9.81;70.88;94071.31;4899581;29;20032;-79
2021/12/29 11:32:22;;;;;;;105.75;63.75;;;;;;;9.78;70.59;94068.44;4898016;29;20036;-80